createdAt,value
2018-05-23T00:00:58.782Z,15.80
2018-05-23T00:03:28.809Z,15.80
2018-05-23T00:05:56.089Z,15.80
2018-05-23T00:08:28.453Z,15.70
2018-05-23T00:10:55.533Z,15.60
2018-05-23T00:13:24.108Z,15.60
2018-05-23T00:15:53.753Z,15.60
2018-05-23T00:18:24.173Z,15.80
2018-05-23T00:20:56.346Z,15.80
2018-05-23T00:23:23.717Z,15.80
2018-05-23T00:25:51.001Z,15.80
2018-05-23T00:28:24.410Z,15.80
2018-05-23T00:30:57.129Z,15.80
2018-05-23T00:33:25.321Z,15.80
2018-05-23T00:36:01.161Z,15.80
2018-05-23T00:38:30.577Z,15.80
2018-05-23T00:41:25.011Z,16.00
2018-05-23T00:43:57.541Z,15.90
2018-05-23T00:46:32.099Z,15.80
2018-05-23T00:49:00.683Z,15.80
2018-05-23T00:51:34.204Z,16.00
2018-05-23T00:54:05.550Z,16.20
2018-05-23T00:56:32.129Z,16.20
2018-05-23T00:59:02.853Z,16.20
2018-05-23T01:01:45.628Z,16.00
2018-05-23T01:04:21.245Z,15.80
2018-05-23T01:06:50.867Z,15.70
2018-05-23T01:09:27.057Z,15.60
2018-05-23T01:12:10.381Z,15.60
2018-05-23T01:14:50.712Z,15.60
2018-05-23T01:17:18.347Z,15.60
2018-05-23T01:19:47.666Z,15.50
2018-05-23T01:22:16.853Z,15.30
2018-05-23T01:24:52.017Z,15.30
2018-05-23T01:27:35.458Z,15.30
2018-05-23T01:30:03.427Z,15.10
2018-05-23T01:32:35.000Z,15.10
2018-05-23T01:35:21.668Z,15.20
2018-05-23T01:38:07.565Z,15.30
2018-05-23T01:40:34.971Z,15.20
2018-05-23T01:43:03.191Z,15.10
2018-05-23T01:45:33.221Z,15.10
2018-05-23T01:48:00.613Z,15.10
2018-05-23T01:50:33.750Z,15.00
2018-05-23T01:53:12.109Z,15.00
2018-05-23T01:55:51.770Z,15.10
2018-05-23T01:58:47.241Z,15.10
2018-05-23T02:01:20.553Z,15.00
2018-05-23T02:03:54.210Z,15.00
2018-05-23T02:06:24.473Z,15.00
2018-05-23T02:08:53.674Z,15.00
2018-05-23T02:11:24.233Z,15.00
2018-05-23T02:13:59.478Z,15.00
2018-05-23T02:16:29.288Z,15.00
2018-05-23T02:19:23.481Z,15.20
2018-05-23T02:21:58.238Z,15.20
2018-05-23T02:24:54.653Z,15.10
2018-05-23T02:27:34.662Z,15.10
2018-05-23T02:30:07.230Z,15.10
2018-05-23T02:32:35.638Z,15.00
2018-05-23T02:35:03.220Z,15.00
2018-05-23T02:37:30.657Z,15.00
2018-05-23T02:39:59.930Z,15.50
2018-05-23T02:42:27.162Z,15.50
2018-05-23T02:44:53.801Z,15.40
2018-05-23T02:47:28.126Z,15.40
2018-05-23T02:49:58.885Z,15.40
2018-05-23T02:52:32.220Z,15.20
2018-05-23T02:55:04.883Z,15.00
2018-05-23T02:57:34.516Z,14.90
2018-05-23T03:00:08.049Z,14.90
2018-05-23T03:02:45.510Z,15.00
2018-05-23T03:05:18.006Z,15.00
2018-05-23T03:07:46.596Z,15.10
2018-05-23T03:10:18.375Z,15.00
2018-05-23T03:12:51.478Z,15.20
2018-05-23T03:15:27.145Z,15.20
2018-05-23T03:17:55.729Z,15.30
2018-05-23T03:20:26.205Z,15.30
2018-05-23T03:23:02.673Z,15.20
2018-05-23T03:25:36.266Z,15.20
2018-05-23T03:28:03.146Z,15.20
2018-05-23T03:30:41.854Z,15.10
2018-05-23T03:33:35.381Z,14.80
2018-05-23T03:36:20.325Z,14.80
2018-05-23T03:38:52.689Z,14.80
2018-05-23T03:41:23.984Z,14.80
2018-05-23T03:44:16.067Z,14.80
2018-05-23T03:46:48.302Z,14.80
2018-05-23T03:49:16.792Z,14.80
2018-05-23T03:51:47.345Z,14.90
2018-05-23T03:54:30.062Z,14.90
2018-05-23T03:57:10.658Z,14.90
2018-05-23T03:59:52.147Z,15.00
2018-05-23T04:05:37.596Z,15.00
2018-05-23T04:08:12.004Z,15.00
2018-05-23T04:10:39.292Z,15.10
2018-05-23T04:13:11.676Z,15.10
2018-05-23T04:15:56.341Z,15.20
2018-05-23T04:18:24.825Z,15.20
2018-05-23T04:20:52.268Z,15.10
2018-05-23T04:23:19.711Z,15.20
2018-05-23T04:25:47.073Z,15.10
2018-05-23T04:28:16.983Z,15.20
2018-05-23T04:30:43.601Z,15.20
2018-05-23T04:33:10.716Z,15.30
2018-05-23T04:35:44.385Z,15.30
2018-05-23T04:38:16.824Z,15.30
2018-05-23T04:40:45.376Z,15.10
2018-05-23T04:43:13.682Z,14.90
2018-05-23T04:45:40.220Z,14.80
2018-05-23T04:48:07.724Z,14.80
2018-05-23T04:50:37.092Z,14.90
2018-05-23T04:53:07.225Z,14.90
2018-05-23T04:55:36.744Z,15.00
2018-05-23T04:58:05.341Z,15.10
2018-05-23T05:00:32.704Z,15.40
2018-05-23T05:03:00.368Z,15.40
2018-05-23T05:05:28.765Z,15.40
2018-05-23T05:07:59.121Z,15.50
2018-05-23T05:10:29.449Z,15.50
2018-05-23T05:12:59.783Z,15.60
2018-05-23T05:15:34.824Z,15.60
2018-05-23T05:18:05.297Z,15.60
2018-05-23T05:20:32.991Z,15.40
2018-05-23T05:23:05.725Z,15.40
2018-05-23T05:25:40.268Z,15.40
2018-05-23T05:28:10.593Z,15.40
2018-05-23T05:30:37.248Z,15.40
2018-05-23T05:33:03.796Z,15.30
2018-05-23T05:35:32.450Z,15.40
2018-05-23T05:37:59.839Z,15.40
2018-05-23T05:40:26.423Z,15.40
2018-05-23T05:42:54.739Z,15.40
2018-05-23T05:45:21.457Z,15.40
2018-05-23T05:47:49.857Z,15.30
2018-05-23T05:50:17.413Z,15.20
2018-05-23T05:53:12.437Z,15.30
2018-05-23T05:55:44.413Z,15.30
2018-05-23T05:58:17.961Z,15.20
2018-05-23T06:00:46.000Z,15.20
2018-05-23T06:03:21.505Z,15.20
2018-05-23T06:05:55.904Z,15.30
2018-05-23T06:08:22.420Z,15.40
2018-05-23T06:11:03.774Z,15.50
2018-05-23T06:13:33.608Z,15.80
2018-05-23T06:16:03.821Z,16.30
2018-05-23T06:18:42.320Z,17.00
2018-05-23T06:21:11.882Z,17.00
2018-05-23T06:23:38.972Z,17.60
2018-05-23T06:26:06.321Z,17.60
2018-05-23T06:28:36.809Z,17.60
2018-05-23T06:31:07.292Z,17.60
2018-05-23T06:33:39.746Z,18.10
2018-05-23T06:36:09.025Z,18.50
2018-05-23T06:38:46.464Z,18.50
2018-05-23T06:41:19.569Z,19.20
2018-05-23T06:44:07.354Z,19.20
2018-05-23T06:46:35.025Z,19.80
2018-05-23T06:49:17.501Z,19.10
2018-05-23T06:51:47.568Z,20.00
2018-05-23T06:54:16.736Z,19.90
2018-05-23T06:56:46.976Z,20.00
2018-05-23T06:59:15.572Z,20.10
2018-05-23T07:01:54.405Z,20.60
2018-05-23T07:04:27.828Z,20.70
2018-05-23T07:06:56.334Z,19.80
2018-05-23T07:09:22.952Z,19.90
2018-05-23T07:11:49.604Z,20.40
2018-05-23T07:14:16.873Z,20.50
2018-05-23T07:16:44.201Z,20.70
2018-05-23T07:19:13.141Z,20.70
2018-05-23T07:21:40.512Z,20.40
2018-05-23T07:24:09.624Z,20.40
2018-05-23T07:26:37.887Z,20.30
2018-05-23T07:29:05.586Z,20.20
2018-05-23T07:31:34.184Z,20.40
2018-05-23T07:34:05.750Z,20.40
2018-05-23T07:36:34.084Z,19.40
2018-05-23T07:39:01.409Z,19.30
2018-05-23T07:41:30.818Z,19.20
2018-05-23T07:43:57.508Z,19.00
2018-05-23T07:46:24.963Z,18.70
2018-05-23T07:48:54.349Z,18.70
2018-05-23T07:51:24.009Z,18.50
2018-05-23T07:53:51.648Z,18.70
2018-05-23T07:56:19.168Z,18.70
2018-05-23T07:58:50.373Z,18.60
2018-05-23T08:01:21.012Z,18.50
2018-05-23T08:03:52.589Z,18.30
2018-05-23T08:06:20.881Z,18.20
2018-05-23T08:08:48.349Z,18.30
2018-05-23T08:11:19.393Z,18.20
2018-05-23T08:13:47.889Z,18.30
2018-05-23T08:16:21.724Z,18.30
2018-05-23T08:18:49.801Z,18.30
2018-05-23T08:21:18.376Z,18.20
2018-05-23T08:23:44.941Z,18.10
2018-05-23T08:26:13.544Z,18.00
2018-05-23T08:28:40.932Z,18.10
2018-05-23T08:31:07.484Z,18.30
2018-05-23T08:33:36.862Z,18.30
2018-05-23T08:36:03.526Z,18.30
2018-05-23T08:38:32.841Z,18.30
2018-05-23T08:41:00.526Z,18.30
2018-05-23T08:43:27.876Z,18.00
2018-05-23T08:45:56.240Z,18.50
2018-05-23T08:48:26.077Z,18.50
2018-05-23T08:50:56.372Z,18.60
2018-05-23T08:53:23.641Z,18.70
2018-05-23T08:56:09.426Z,18.70
2018-05-23T08:58:45.952Z,18.80
2018-05-23T09:01:23.680Z,18.40
2018-05-23T09:03:52.887Z,18.30
2018-05-23T09:06:20.476Z,18.30
2018-05-23T09:08:48.841Z,18.10
2018-05-23T09:11:22.468Z,17.80
2018-05-23T09:13:49.782Z,17.60
2018-05-23T09:16:21.500Z,17.80
2018-05-23T09:18:50.077Z,17.70
2018-05-23T09:21:16.610Z,17.50
2018-05-23T09:23:45.860Z,17.40
2018-05-23T09:26:13.225Z,18.10
2018-05-23T09:28:47.769Z,18.10
2018-05-23T09:31:15.640Z,18.80
2018-05-23T09:33:42.187Z,18.70
2018-05-23T09:36:16.521Z,19.00
2018-05-23T09:38:44.845Z,19.00
2018-05-23T09:41:14.109Z,19.40
2018-05-23T09:43:44.143Z,19.30
2018-05-23T09:46:15.456Z,19.40
2018-05-23T09:48:43.993Z,19.70
2018-05-23T09:51:10.556Z,19.80
2018-05-23T09:53:37.860Z,20.00
2018-05-23T09:56:05.257Z,20.20
2018-05-23T09:58:40.605Z,20.00
2018-05-23T10:01:12.196Z,18.80
2018-05-23T10:03:40.813Z,18.80
2018-05-23T10:06:07.891Z,18.50
2018-05-23T10:08:38.398Z,19.00
2018-05-23T10:11:08.118Z,19.30
2018-05-23T10:13:34.767Z,20.30
2018-05-23T10:16:02.714Z,21.30
2018-05-23T10:18:29.404Z,21.30
2018-05-23T10:21:01.174Z,21.80
2018-05-23T10:23:30.799Z,21.90
2018-05-23T10:25:57.380Z,22.40
2018-05-23T10:28:27.986Z,21.80
2018-05-23T10:30:57.616Z,21.20
2018-05-23T10:33:27.613Z,21.30
2018-05-23T10:35:57.256Z,21.40
2018-05-23T10:38:24.453Z,22.50
2018-05-23T10:40:51.068Z,22.10
2018-05-23T10:43:19.169Z,22.80
2018-05-23T10:45:45.814Z,22.80
2018-05-23T10:48:13.917Z,22.40
2018-05-23T10:50:43.485Z,22.50
2018-05-23T10:53:10.053Z,22.50
2018-05-23T10:55:39.788Z,22.90
2018-05-23T10:58:07.629Z,22.00
2018-05-23T11:00:35.347Z,22.10
2018-05-23T11:03:11.537Z,22.20
2018-05-23T11:05:43.927Z,21.50
2018-05-23T11:08:10.497Z,21.40
2018-05-23T11:10:37.057Z,20.90
2018-05-23T11:13:03.588Z,20.50
2018-05-23T11:15:34.998Z,20.90
2018-05-23T11:18:05.226Z,21.40
2018-05-23T11:20:31.920Z,21.40
2018-05-23T11:22:59.545Z,21.80
2018-05-23T11:25:27.122Z,22.30
2018-05-23T11:28:16.086Z,22.50
2018-05-23T11:30:45.725Z,22.40
2018-05-23T11:33:12.289Z,22.60
2018-05-23T11:35:38.909Z,22.40
2018-05-23T11:38:05.493Z,22.30
2018-05-23T11:40:32.857Z,23.00
2018-05-23T11:43:00.144Z,23.30
2018-05-23T11:45:31.984Z,22.80
2018-05-23T11:48:00.569Z,22.80
2018-05-23T11:50:40.120Z,23.20
2018-05-23T11:53:06.835Z,23.00
2018-05-23T11:55:34.222Z,23.60
2018-05-23T11:58:00.990Z,23.60
2018-05-23T12:00:31.321Z,24.20
2018-05-23T12:03:02.297Z,24.30
2018-05-23T12:05:32.731Z,24.30
2018-05-23T12:08:03.485Z,24.40
2018-05-23T12:10:32.803Z,24.40
2018-05-23T12:13:00.568Z,24.40
2018-05-23T12:15:32.374Z,24.40
2018-05-23T12:17:59.064Z,24.20
2018-05-23T12:20:27.685Z,24.30
2018-05-23T12:22:59.744Z,23.80
2018-05-23T12:25:26.426Z,23.70
2018-05-23T12:27:54.808Z,23.10
2018-05-23T12:30:22.492Z,23.00
2018-05-23T12:32:49.184Z,23.00
2018-05-23T12:35:20.748Z,22.60
2018-05-23T12:37:47.972Z,22.40
2018-05-23T12:40:21.590Z,22.50
2018-05-23T12:42:52.718Z,22.60
2018-05-23T12:45:19.390Z,22.60
2018-05-23T12:47:53.915Z,22.60
2018-05-23T12:50:26.552Z,22.60
2018-05-23T12:52:53.292Z,22.70
2018-05-23T12:55:21.015Z,22.90
2018-05-23T12:57:47.573Z,23.30
2018-05-23T13:00:15.961Z,23.10
2018-05-23T13:02:45.888Z,23.10
2018-05-23T13:05:16.510Z,23.00
2018-05-23T13:07:44.105Z,22.80
2018-05-23T13:10:13.284Z,23.20
2018-05-23T13:12:41.715Z,23.30
2018-05-23T13:15:12.557Z,23.10
2018-05-23T13:17:41.856Z,23.60
2018-05-23T13:20:08.401Z,23.60
2018-05-23T13:22:36.291Z,23.70
2018-05-23T13:25:05.921Z,23.70
2018-05-23T13:27:51.628Z,24.10
2018-05-23T13:30:22.102Z,24.00
2018-05-23T13:32:49.533Z,24.30
2018-05-23T13:35:18.809Z,24.50
2018-05-23T13:37:45.441Z,24.40
2018-05-23T13:40:12.050Z,24.70
2018-05-23T13:42:40.490Z,24.50
2018-05-23T13:45:15.675Z,24.50
2018-05-23T13:47:49.996Z,24.90
2018-05-23T13:50:19.285Z,25.20
2018-05-23T13:52:47.673Z,25.10
2018-05-23T13:55:15.327Z,25.10
2018-05-23T13:57:46.328Z,24.70
2018-05-23T14:00:16.379Z,24.20
2018-05-23T14:02:44.907Z,24.10
2018-05-23T14:05:12.844Z,24.20
2018-05-23T14:07:39.485Z,24.20
2018-05-23T14:10:06.865Z,24.30
2018-05-23T14:12:34.218Z,24.20
2018-05-23T14:15:03.492Z,24.30
2018-05-23T14:17:30.894Z,24.50
2018-05-23T14:20:04.630Z,24.70
2018-05-23T14:22:35.901Z,24.70
2018-05-23T14:25:03.208Z,24.60
2018-05-23T14:27:35.521Z,24.50
2018-05-23T14:30:03.871Z,24.40
2018-05-23T14:32:34.869Z,24.20
2018-05-23T14:35:03.285Z,23.90
2018-05-23T14:37:33.860Z,24.10
2018-05-23T14:40:04.140Z,24.10
2018-05-23T14:42:31.622Z,23.70
2018-05-23T14:45:00.912Z,23.70
2018-05-23T14:47:28.288Z,24.20
2018-05-23T14:49:58.863Z,24.20
2018-05-23T14:52:35.192Z,24.90
2018-05-23T14:55:06.910Z,25.10
2018-05-23T14:57:34.297Z,24.70
2018-05-23T15:00:06.841Z,24.70
2018-05-23T15:02:33.492Z,24.60
2018-05-23T15:05:01.232Z,24.30
2018-05-23T15:07:32.405Z,24.80
2018-05-23T15:09:59.584Z,24.80
2018-05-23T15:12:26.219Z,25.60
2018-05-23T15:14:53.545Z,26.30
2018-05-23T15:17:20.194Z,26.20
2018-05-23T15:19:46.878Z,25.70
2018-05-23T15:22:16.732Z,25.60
2018-05-23T15:24:47.380Z,25.60
2018-05-23T15:27:15.853Z,26.00
2018-05-23T15:29:43.201Z,25.90
2018-05-23T15:32:13.877Z,25.90
2018-05-23T15:34:46.347Z,25.60
2018-05-23T15:37:16.562Z,25.70
2018-05-23T15:39:44.272Z,25.70
2018-05-23T15:42:13.768Z,26.00
2018-05-23T15:44:46.257Z,25.50
2018-05-23T15:47:16.040Z,26.80
2018-05-23T15:49:49.132Z,26.90
2018-05-23T15:52:19.855Z,26.80
2018-05-23T15:54:48.086Z,26.80
2018-05-23T15:57:16.415Z,26.60
2018-05-23T15:59:43.677Z,26.60
2018-05-23T16:02:10.344Z,26.30
2018-05-23T16:04:38.513Z,26.50
2018-05-23T16:07:06.432Z,26.30
2018-05-23T16:09:34.779Z,26.30
2018-05-23T16:12:02.237Z,27.20
2018-05-23T16:14:31.479Z,27.40
2018-05-23T16:16:58.144Z,27.40
2018-05-23T16:19:25.481Z,27.20
2018-05-23T16:21:52.796Z,27.20
2018-05-23T16:24:49.279Z,27.30
2018-05-23T16:27:21.881Z,27.30
2018-05-23T16:29:50.193Z,27.70
2018-05-23T16:32:16.740Z,27.60
2018-05-23T16:34:48.892Z,28.00
2018-05-23T16:37:17.809Z,27.70
2018-05-23T16:39:45.169Z,27.40
2018-05-23T16:42:12.509Z,27.10
2018-05-23T16:44:42.529Z,26.60
2018-05-23T16:47:09.929Z,26.60
2018-05-23T16:49:36.584Z,26.60
2018-05-23T16:52:05.939Z,26.60
2018-05-23T16:54:32.572Z,26.60
2018-05-23T16:57:00.419Z,25.80
2018-05-23T16:59:37.012Z,25.50
2018-05-23T17:02:04.893Z,25.10
2018-05-23T17:04:32.249Z,25.10
2018-05-23T17:07:01.673Z,24.70
2018-05-23T17:09:28.337Z,24.40
2018-05-23T17:11:59.303Z,24.00
2018-05-23T17:14:25.852Z,24.00
2018-05-23T17:16:55.472Z,24.00
2018-05-23T17:19:26.090Z,23.90
2018-05-23T17:21:53.452Z,23.00
2018-05-23T17:24:20.029Z,23.00
2018-05-23T17:26:50.333Z,21.90
2018-05-23T17:29:18.717Z,20.70
2018-05-23T17:31:48.048Z,20.50
2018-05-23T17:34:15.413Z,20.30
2018-05-23T17:36:43.832Z,20.20
2018-05-23T17:39:11.932Z,20.00
2018-05-23T17:41:43.239Z,19.90
2018-05-23T17:44:15.697Z,19.70
2018-05-23T17:46:46.028Z,19.70
2018-05-23T17:49:19.489Z,19.70
2018-05-23T17:51:51.760Z,19.90
2018-05-23T17:54:30.296Z,19.90
2018-05-23T17:56:59.672Z,20.00
2018-05-23T17:59:29.029Z,20.10
2018-05-23T18:02:00.710Z,20.10
2018-05-23T18:04:28.160Z,20.10
2018-05-23T18:07:01.967Z,20.10
2018-05-23T18:09:31.673Z,20.00
2018-05-23T18:12:00.020Z,20.10
2018-05-23T18:14:45.055Z,20.10
2018-05-23T18:17:25.907Z,20.20
2018-05-23T18:19:52.620Z,20.20
2018-05-23T18:22:28.992Z,20.10
2018-05-23T18:24:56.664Z,20.20
2018-05-23T18:27:24.282Z,20.10
2018-05-23T18:30:08.105Z,19.90
2018-05-23T18:32:35.281Z,19.80
2018-05-23T18:35:16.382Z,19.70
2018-05-23T18:37:52.214Z,19.70
2018-05-23T18:40:28.809Z,19.60
2018-05-23T18:42:56.546Z,19.20
2018-05-23T18:45:25.592Z,18.80
2018-05-23T18:48:01.727Z,18.20
2018-05-23T18:50:33.238Z,17.80
2018-05-23T18:53:01.446Z,17.50
2018-05-23T18:55:39.697Z,17.40
2018-05-23T18:58:11.428Z,17.40
2018-05-23T19:00:47.365Z,17.40
2018-05-23T19:03:22.150Z,17.20
2018-05-23T19:05:50.860Z,17.30
2018-05-23T19:08:37.698Z,17.30
2018-05-23T19:11:44.301Z,17.20
2018-05-23T19:14:15.880Z,17.20
2018-05-23T19:16:44.166Z,17.20
2018-05-23T19:19:15.188Z,17.20
2018-05-23T19:21:51.986Z,17.20
2018-05-23T19:24:20.121Z,17.20
2018-05-23T19:26:52.192Z,17.10
2018-05-23T19:29:20.886Z,17.10
2018-05-23T19:31:53.258Z,17.00
2018-05-23T19:34:25.537Z,16.90
2018-05-23T19:36:58.045Z,16.90
2018-05-23T19:39:42.608Z,16.80
2018-05-23T19:42:14.160Z,16.80
2018-05-23T19:44:45.988Z,16.80
2018-05-23T19:47:17.224Z,16.80
2018-05-23T19:50:03.965Z,16.80
2018-05-23T19:52:46.589Z,16.80
2018-05-23T19:55:14.479Z,16.70
2018-05-23T19:58:10.450Z,16.70
2018-05-23T20:00:40.640Z,16.80
2018-05-23T20:03:18.814Z,16.80
2018-05-23T20:05:49.284Z,16.70
2018-05-23T20:08:17.577Z,16.70
2018-05-23T20:10:48.492Z,16.70
2018-05-23T20:13:16.629Z,16.80
2018-05-23T20:15:47.625Z,16.80
2018-05-23T20:18:21.247Z,16.80
2018-05-23T20:20:51.956Z,16.90
2018-05-23T20:23:31.773Z,16.70
2018-05-23T20:26:05.260Z,16.70
2018-05-23T20:28:32.953Z,16.60
2018-05-23T20:31:24.618Z,16.40
2018-05-23T20:34:17.295Z,16.40
2018-05-23T20:36:52.180Z,16.30
2018-05-23T20:39:24.547Z,16.30
2018-05-23T20:41:53.088Z,16.30
2018-05-23T20:44:20.736Z,16.30
2018-05-23T20:46:51.477Z,16.30
2018-05-23T20:49:38.045Z,16.20
2018-05-23T20:52:08.413Z,16.20
2018-05-23T20:54:41.238Z,16.10
2018-05-23T20:57:16.893Z,16.20
2018-05-23T20:59:50.100Z,16.20
2018-05-23T21:02:19.104Z,16.20
2018-05-23T21:04:46.484Z,16.30
2018-05-23T21:07:20.900Z,16.20
2018-05-23T21:09:53.409Z,16.20
2018-05-23T21:12:20.734Z,16.10
2018-05-23T21:14:49.459Z,16.10
2018-05-23T21:17:22.701Z,16.10
2018-05-23T21:19:56.364Z,16.20
2018-05-23T21:22:25.582Z,16.10
2018-05-23T21:24:55.893Z,16.10
2018-05-23T21:27:48.864Z,16.10
2018-05-23T21:30:27.737Z,16.00
2018-05-23T21:33:01.868Z,15.90
2018-05-23T21:35:29.353Z,15.90
2018-05-23T21:37:56.849Z,15.90
2018-05-23T21:40:36.692Z,15.90
2018-05-23T21:43:09.152Z,15.90
2018-05-23T21:45:41.754Z,15.80
2018-05-23T21:48:14.464Z,15.80
2018-05-23T21:51:06.008Z,15.70
2018-05-23T21:53:38.648Z,15.70
2018-05-23T21:56:08.966Z,15.70
2018-05-23T21:58:53.049Z,15.70
2018-05-23T22:01:31.488Z,15.70
2018-05-23T22:04:01.617Z,15.60
2018-05-23T22:06:37.625Z,15.60
2018-05-23T22:09:10.167Z,15.60
2018-05-23T22:11:42.861Z,15.60
2018-05-23T22:14:16.493Z,15.70
2018-05-23T22:17:22.696Z,15.60
2018-05-23T22:19:53.548Z,15.60
2018-05-23T22:22:24.356Z,15.60
2018-05-23T22:24:55.714Z,15.70
2018-05-23T22:27:28.121Z,15.80
2018-05-23T22:30:00.580Z,15.70
2018-05-23T22:32:32.057Z,15.80
2018-05-23T22:35:04.648Z,15.70
2018-05-23T22:37:37.031Z,15.70
2018-05-23T22:40:05.081Z,15.70
2018-05-23T22:42:39.037Z,15.60
2018-05-23T22:45:09.569Z,15.60
2018-05-23T22:48:01.980Z,15.60
2018-05-23T22:50:32.669Z,15.60
2018-05-23T22:53:21.094Z,15.60
2018-05-23T22:55:54.763Z,15.60
2018-05-23T22:58:21.920Z,15.60
2018-05-23T23:00:56.759Z,15.50
2018-05-23T23:03:27.075Z,15.50
2018-05-23T23:06:04.660Z,15.50
2018-05-23T23:08:41.284Z,15.50
2018-05-23T23:11:12.858Z,15.50
2018-05-23T23:13:41.151Z,15.40
2018-05-23T23:16:13.632Z,15.30
2018-05-23T23:18:47.344Z,15.30
2018-05-23T23:21:20.656Z,15.30
2018-05-23T23:23:54.470Z,15.20
2018-05-23T23:26:22.876Z,15.10
2018-05-23T23:28:55.449Z,15.10
2018-05-23T23:31:31.425Z,15.10
2018-05-23T23:34:06.875Z,15.00
2018-05-23T23:37:21.201Z,15.10
2018-05-23T23:39:54.663Z,15.10
2018-05-23T23:42:23.057Z,15.30
2018-05-23T23:45:14.549Z,15.40
2018-05-23T23:47:41.904Z,15.40
2018-05-23T23:50:14.482Z,15.40
2018-05-23T23:52:41.204Z,15.40
2018-05-23T23:55:23.824Z,15.40
2018-05-23T23:57:58.775Z,15.30
